createdAt,value
2022-08-27T00:00:26.471Z,965.04
2022-08-27T00:01:26.789Z,965.01
2022-08-27T00:02:27.100Z,965.02
2022-08-27T00:03:27.333Z,964.99
2022-08-27T00:04:27.719Z,964.97
2022-08-27T00:05:27.888Z,964.95
2022-08-27T00:06:28.186Z,964.94
2022-08-27T00:07:28.485Z,964.94
2022-08-27T00:08:28.775Z,964.93
2022-08-27T00:09:29.042Z,964.91
2022-08-27T00:10:29.356Z,964.92
2022-08-27T00:11:29.679Z,964.88
2022-08-27T00:12:29.969Z,964.90
2022-08-27T00:13:30.297Z,964.91
2022-08-27T00:14:30.595Z,964.87
2022-08-27T00:15:30.914Z,964.86
2022-08-27T00:16:31.344Z,964.85
2022-08-27T00:17:31.495Z,964.80
2022-08-27T00:18:31.804Z,964.76
2022-08-27T00:19:32.104Z,964.78
2022-08-27T00:20:32.433Z,964.78
2022-08-27T00:21:32.751Z,964.75
2022-08-27T00:22:33.044Z,964.74
2022-08-27T00:23:33.353Z,964.73
2022-08-27T00:24:33.637Z,964.71
2022-08-27T00:25:33.901Z,964.73
2022-08-27T00:26:34.224Z,964.70
2022-08-27T00:27:34.537Z,964.69
2022-08-27T00:28:34.821Z,964.67
2022-08-27T00:29:35.121Z,964.74
2022-08-27T00:30:35.407Z,964.73
2022-08-27T00:31:35.781Z,964.77
2022-08-27T00:32:35.974Z,964.79
2022-08-27T00:33:36.263Z,964.81
2022-08-27T00:34:36.557Z,964.80
2022-08-27T00:35:36.822Z,964.78
2022-08-27T00:36:37.128Z,964.79
2022-08-27T00:37:37.452Z,964.82
2022-08-27T00:38:37.770Z,964.83
2022-08-27T00:39:38.059Z,964.82
2022-08-27T00:40:38.389Z,964.84
2022-08-27T00:41:38.666Z,964.86
2022-08-27T00:42:38.986Z,964.85
2022-08-27T00:43:39.274Z,964.86
2022-08-27T00:44:39.527Z,964.88
2022-08-27T00:45:39.840Z,964.86
2022-08-27T00:46:40.065Z,964.87
2022-08-27T00:47:40.378Z,964.86
2022-08-27T00:48:40.660Z,964.91
2022-08-27T00:49:40.946Z,964.92
2022-08-27T00:50:41.248Z,964.87
2022-08-27T00:51:41.535Z,964.90
2022-08-27T00:52:41.855Z,964.89
2022-08-27T02:56:56.609Z,964.64
2022-08-27T02:57:56.893Z,964.62
2022-08-27T02:58:57.175Z,964.63
2022-08-27T02:59:57.449Z,964.51
2022-08-27T03:00:57.717Z,964.55
2022-08-27T03:01:58.179Z,964.55
2022-08-27T03:02:58.347Z,964.55
2022-08-27T03:03:58.528Z,964.54
2022-08-27T03:04:58.795Z,964.56
2022-08-27T03:05:59.055Z,964.53
2022-08-27T03:06:59.401Z,964.46
2022-08-27T03:07:59.646Z,964.50
2022-08-27T03:08:59.899Z,964.49
2022-08-27T03:10:00.227Z,964.50
2022-08-27T03:11:00.401Z,964.51
2022-08-27T03:12:00.670Z,964.46
2022-08-27T03:13:00.917Z,964.51
2022-08-27T03:14:01.286Z,964.48
2022-08-27T03:15:01.556Z,964.46
2022-08-27T03:16:01.878Z,964.43
2022-08-27T03:17:02.137Z,964.45
2022-08-27T03:18:02.369Z,964.41
2022-08-27T03:19:02.608Z,964.44
2022-08-27T03:20:02.885Z,964.42
2022-08-27T03:21:03.171Z,964.43
2022-08-27T03:22:03.408Z,964.43
2022-08-27T03:23:03.767Z,964.42
2022-08-27T03:24:09.154Z,964.40
2022-08-27T03:25:05.296Z,964.40
2022-08-27T03:26:04.592Z,964.40
2022-08-27T03:27:04.840Z,964.38
2022-08-27T03:28:05.224Z,964.37
2022-08-27T03:29:06.462Z,964.38
2022-08-27T03:30:05.765Z,964.36
2022-08-27T03:31:06.125Z,964.35
2022-08-27T03:32:06.297Z,964.39
2022-08-27T03:33:06.535Z,964.36
2022-08-27T03:34:06.809Z,964.28
2022-08-27T03:35:07.067Z,964.29
2022-08-27T03:36:07.305Z,964.32
2022-08-27T03:37:07.629Z,964.27
2022-08-27T03:38:07.987Z,964.25
2022-08-27T03:39:08.267Z,964.29
2022-08-27T03:40:08.615Z,964.25
2022-08-27T03:41:08.787Z,964.27
2022-08-27T03:42:09.011Z,964.27
2022-08-27T03:43:09.243Z,964.28
2022-08-27T03:44:09.482Z,964.27
2022-08-27T03:45:09.750Z,964.24
2022-08-27T03:46:10.884Z,964.25
2022-08-27T03:47:10.327Z,964.27
2022-08-27T03:48:10.659Z,964.29
2022-08-27T03:49:10.895Z,964.27
2022-08-27T03:50:11.181Z,964.24
2022-08-27T03:51:11.422Z,964.28
2022-08-27T03:52:11.668Z,964.23
2022-08-27T03:53:12.018Z,964.22
2022-08-27T03:54:12.260Z,964.19
2022-08-27T03:55:12.544Z,964.17
2022-08-27T03:56:12.837Z,964.18
2022-08-27T03:57:13.111Z,964.12
2022-08-27T03:58:13.360Z,964.16
2022-08-27T03:59:13.694Z,964.16
2022-08-27T04:00:14.017Z,964.17
2022-08-27T04:01:14.296Z,964.17
2022-08-27T04:02:14.922Z,964.17
2022-08-27T04:03:15.684Z,964.18
2022-08-27T04:04:15.098Z,964.20
2022-08-27T04:05:15.356Z,964.21
2022-08-27T04:06:15.598Z,964.21
2022-08-27T04:07:15.854Z,964.16
2022-08-27T04:08:16.123Z,964.18
2022-08-27T04:09:16.375Z,964.17
2022-08-27T04:10:16.634Z,964.19
2022-08-27T04:11:16.963Z,964.21
2022-08-27T04:12:17.344Z,964.21
2022-08-27T04:13:17.597Z,964.19
2022-08-27T04:14:27.147Z,964.20
2022-08-27T04:15:19.191Z,964.18
2022-08-27T04:16:18.549Z,964.21
2022-08-27T04:17:18.825Z,964.15
2022-08-27T04:18:19.079Z,964.14
2022-08-27T04:19:21.244Z,964.11
2022-08-27T04:20:36.003Z,964.12
2022-08-27T04:21:20.896Z,964.14
2022-08-27T04:22:20.204Z,964.15
2022-08-27T04:23:20.460Z,964.15
2022-08-27T04:24:20.723Z,964.17
2022-08-27T04:25:20.972Z,964.15
2022-08-27T04:26:21.245Z,964.18
2022-08-27T04:27:21.513Z,964.19
2022-08-27T04:28:21.766Z,964.17
2022-08-27T04:29:22.035Z,964.21
2022-08-27T04:30:22.282Z,964.18
2022-08-27T04:31:22.606Z,964.19
2022-08-27T04:32:22.784Z,964.22
2022-08-27T04:33:23.024Z,964.16
2022-08-27T04:34:23.361Z,964.19
2022-08-27T04:35:23.604Z,964.20
2022-08-27T04:36:23.892Z,964.20
2022-08-27T04:37:25.090Z,964.19
2022-08-27T04:38:24.394Z,964.22
2022-08-27T04:39:24.663Z,964.23
2022-08-27T04:40:24.925Z,964.19
2022-08-27T04:41:25.210Z,964.21
2022-08-27T04:42:25.472Z,964.21
2022-08-27T04:43:25.720Z,964.17
2022-08-27T04:44:25.966Z,964.20
2022-08-27T04:45:26.221Z,964.18
2022-08-27T04:46:26.560Z,964.19
2022-08-27T04:47:26.754Z,964.18
2022-08-27T04:48:27.012Z,964.20
2022-08-27T04:49:27.250Z,964.18
2022-08-27T04:50:27.498Z,964.19
2022-08-27T04:51:27.726Z,964.19
2022-08-27T04:52:28.100Z,964.16
2022-08-27T04:53:28.393Z,964.17
2022-08-27T04:54:32.300Z,964.20
2022-08-27T04:55:28.925Z,964.22
2022-08-27T04:56:29.164Z,964.25
2022-08-27T04:57:29.376Z,964.21
2022-08-27T04:58:29.715Z,964.27
2022-08-27T04:59:29.994Z,964.27
2022-08-27T05:00:30.236Z,964.29
2022-08-27T05:01:30.524Z,964.29
2022-08-27T05:02:30.768Z,964.29
2022-08-27T05:03:31.017Z,964.28
2022-08-27T05:04:31.305Z,964.26
2022-08-27T05:05:31.558Z,964.27
2022-08-27T05:06:31.824Z,964.31
2022-08-27T05:07:32.065Z,964.32
2022-08-27T05:08:32.298Z,964.33
2022-08-27T05:09:32.581Z,964.27
2022-08-27T05:10:32.830Z,964.32
2022-08-27T05:11:33.083Z,964.30
2022-08-27T05:12:33.325Z,964.27
2022-08-27T05:13:33.553Z,964.26
2022-08-27T05:14:33.923Z,964.25
2022-08-27T05:15:34.162Z,964.26
2022-08-27T05:16:34.399Z,964.27
2022-08-27T05:17:34.738Z,964.25
2022-08-27T05:18:38.067Z,964.27
2022-08-27T05:19:36.227Z,964.25
2022-08-27T05:20:35.523Z,964.27
2022-08-27T05:21:35.796Z,964.29
2022-08-27T05:22:36.029Z,964.28
2022-08-27T05:23:36.710Z,964.25
2022-08-27T05:24:36.590Z,964.28
2022-08-27T05:25:36.844Z,964.24
2022-08-27T05:26:37.086Z,964.25
2022-08-27T05:27:37.325Z,964.26
2022-08-27T05:28:37.565Z,964.22
2022-08-27T05:29:37.858Z,964.26
2022-08-27T05:30:38.175Z,964.28
2022-08-27T05:31:38.529Z,964.27
2022-08-27T05:32:38.661Z,964.25
2022-08-27T05:33:39.033Z,964.28
2022-08-27T05:34:39.289Z,964.25
2022-08-27T05:35:39.537Z,964.27
2022-08-27T05:36:48.104Z,964.27
2022-08-27T05:37:41.098Z,964.27
2022-08-27T05:38:40.377Z,964.27
2022-08-27T05:39:40.726Z,964.27
2022-08-27T05:40:40.970Z,964.31
2022-08-27T05:41:41.259Z,964.24
2022-08-27T05:42:41.496Z,964.28
2022-08-27T05:43:46.468Z,964.32
2022-08-27T05:44:43.096Z,964.32
2022-08-27T05:45:42.381Z,964.32
2022-08-27T05:46:42.684Z,964.33
2022-08-27T05:47:44.418Z,964.35
2022-08-27T05:48:43.171Z,964.31
2022-08-27T05:49:43.409Z,964.34
2022-08-27T05:50:43.682Z,964.38
2022-08-27T05:51:43.912Z,964.36
2022-08-27T05:52:44.168Z,964.37
2022-08-27T05:53:44.407Z,964.36
2022-08-27T05:54:44.740Z,964.38
2022-08-27T05:55:44.999Z,964.40
2022-08-27T05:56:45.267Z,964.36
2022-08-27T05:57:45.500Z,964.39
2022-08-27T05:58:45.849Z,964.36
2022-08-27T05:59:46.077Z,964.39
2022-08-27T06:00:46.321Z,964.37
2022-08-27T06:01:46.604Z,964.39
2022-08-27T06:02:46.895Z,964.36
2022-08-27T06:03:47.171Z,964.40
2022-08-27T06:04:47.558Z,964.42
2022-08-27T06:05:47.804Z,964.39
2022-08-27T06:06:48.106Z,964.40
2022-08-27T06:07:48.355Z,964.41
2022-08-27T06:08:48.583Z,964.42
2022-08-27T06:09:48.846Z,964.38
2022-08-27T06:10:49.088Z,964.43
2022-08-27T06:11:49.337Z,964.45
2022-08-27T06:12:52.630Z,964.43
2022-08-27T06:13:50.797Z,964.44
2022-08-27T06:14:50.108Z,964.43
2022-08-27T06:15:50.366Z,964.45
2022-08-27T06:16:50.614Z,964.46
2022-08-27T06:17:50.866Z,964.45
2022-08-27T06:18:51.090Z,964.44
2022-08-27T06:19:51.433Z,964.43
2022-08-27T06:20:51.662Z,964.42
2022-08-27T06:22:01.160Z,964.42
2022-08-27T06:22:53.267Z,964.41
2022-08-27T06:23:52.557Z,964.41
2022-08-27T06:24:52.800Z,964.40
2022-08-27T06:25:53.051Z,964.42
2022-08-27T06:26:53.271Z,964.36
2022-08-27T06:27:53.600Z,964.45
2022-08-27T06:28:53.939Z,964.44
2022-08-27T06:29:54.217Z,964.45
2022-08-27T06:30:54.489Z,964.44
2022-08-27T06:31:54.744Z,964.40
2022-08-27T06:32:54.966Z,964.44
2022-08-27T06:33:55.295Z,964.46
2022-08-27T06:34:55.534Z,964.47
2022-08-27T06:35:55.762Z,964.50
2022-08-27T06:36:56.030Z,964.50
2022-08-27T06:37:56.279Z,964.47
2022-08-27T06:38:56.521Z,964.43
2022-08-27T06:39:56.830Z,964.46
2022-08-27T06:40:57.093Z,964.47
2022-08-27T06:41:57.351Z,964.49
2022-08-27T06:42:57.605Z,964.50
2022-08-27T06:43:57.832Z,964.48
2022-08-27T06:44:58.091Z,964.54
2022-08-27T06:45:58.366Z,964.54
2022-08-27T06:46:58.612Z,964.52
2022-08-27T06:47:58.843Z,964.55
2022-08-27T06:48:59.189Z,964.57
2022-08-27T06:49:59.443Z,964.53
2022-08-27T06:50:59.686Z,964.53
2022-08-27T06:51:59.923Z,964.56
2022-08-27T06:53:00.162Z,964.58
2022-08-27T06:54:00.392Z,964.55
2022-08-27T06:55:00.663Z,964.57
2022-08-27T06:56:00.911Z,964.58
2022-08-27T06:57:01.148Z,964.53
2022-08-27T06:58:01.382Z,964.56
2022-08-27T06:59:01.622Z,964.59
2022-08-27T07:00:01.884Z,964.58
2022-08-27T07:01:02.216Z,964.54
2022-08-27T07:02:02.450Z,964.56
2022-08-27T07:03:02.794Z,964.58
2022-08-27T07:04:03.017Z,964.58
2022-08-27T07:05:03.376Z,964.57
2022-08-27T07:06:03.604Z,964.61
2022-08-27T07:07:03.973Z,964.60
2022-08-27T07:08:04.245Z,964.61
2022-08-27T07:09:04.537Z,964.63
2022-08-27T07:10:04.778Z,964.60
2022-08-27T07:11:05.102Z,964.64
2022-08-27T07:12:05.362Z,964.62
2022-08-27T07:13:05.588Z,964.65
2022-08-27T07:14:05.943Z,964.66
2022-08-27T07:15:06.170Z,964.66
2022-08-27T07:16:06.516Z,964.70
2022-08-27T07:17:07.417Z,964.70
2022-08-27T07:18:07.109Z,964.70
2022-08-27T07:19:07.339Z,964.73
2022-08-27T07:20:07.587Z,964.74
2022-08-27T07:21:07.821Z,964.72
2022-08-27T07:22:08.059Z,964.75
2022-08-27T07:23:10.992Z,964.77
2022-08-27T07:24:08.565Z,964.72
2022-08-27T07:25:08.909Z,964.78
2022-08-27T07:26:09.132Z,964.76
2022-08-27T07:27:09.419Z,964.76
2022-08-27T07:28:09.901Z,964.69
2022-08-27T07:29:09.926Z,964.75
2022-08-27T07:30:10.185Z,964.75
2022-08-27T07:31:10.454Z,964.76
2022-08-27T07:32:10.717Z,964.76
2022-08-27T07:33:11.073Z,964.77
2022-08-27T07:34:11.311Z,964.80
2022-08-27T07:35:11.582Z,964.81
2022-08-27T07:36:11.825Z,964.81
2022-08-27T07:37:12.068Z,964.81
2022-08-27T07:38:12.508Z,964.83
2022-08-27T07:39:12.608Z,964.83
2022-08-27T07:40:12.903Z,964.82
2022-08-27T07:41:13.121Z,964.82
2022-08-27T07:42:13.471Z,964.85
2022-08-27T07:43:13.698Z,964.82
2022-08-27T07:44:13.926Z,964.85
2022-08-27T07:45:14.275Z,964.84
2022-08-27T07:46:14.591Z,964.85
2022-08-27T07:47:14.782Z,964.85
2022-08-27T07:48:15.005Z,964.81
2022-08-27T07:49:15.232Z,964.82
2022-08-27T07:50:15.491Z,964.84
2022-08-27T07:51:15.739Z,964.81
2022-08-27T07:52:16.017Z,964.83
2022-08-27T07:53:16.261Z,964.84
2022-08-27T07:54:16.498Z,964.83
2022-08-27T07:55:16.728Z,964.85
2022-08-27T07:56:16.959Z,964.83
2022-08-27T07:57:17.334Z,964.89
2022-08-27T07:58:18.830Z,964.86
2022-08-27T07:59:17.855Z,964.85
2022-08-27T08:00:18.083Z,964.86
2022-08-27T08:01:18.436Z,964.86
2022-08-27T08:02:18.759Z,964.86
2022-08-27T08:03:19.046Z,964.87
2022-08-27T08:04:20.521Z,964.87
2022-08-27T08:05:19.622Z,964.88
2022-08-27T08:06:19.866Z,964.86
2022-08-27T08:07:20.082Z,964.86
2022-08-27T08:08:20.411Z,964.86
2022-08-27T08:09:20.655Z,964.87
2022-08-27T08:10:20.888Z,964.87
2022-08-27T08:11:21.108Z,964.89
2022-08-27T08:12:26.355Z,964.87
2022-08-27T08:13:22.651Z,964.91
2022-08-27T08:14:21.955Z,964.87
2022-08-27T08:15:22.220Z,964.92
2022-08-27T08:16:22.454Z,964.94
2022-08-27T08:17:22.812Z,964.93
2022-08-27T08:18:22.927Z,964.94
2022-08-27T08:19:23.268Z,964.94
2022-08-27T08:20:36.041Z,964.98
2022-08-27T08:21:24.736Z,964.94
2022-08-27T08:22:24.008Z,964.96
2022-08-27T08:23:24.335Z,964.99
2022-08-27T08:24:24.593Z,964.97
2022-08-27T08:25:24.811Z,964.97
2022-08-27T08:26:25.145Z,965.02
2022-08-27T08:27:25.378Z,964.98
2022-08-27T08:28:25.610Z,965.02
2022-08-27T08:29:25.996Z,965.02
2022-08-27T08:30:26.218Z,965.01
2022-08-27T08:31:27.692Z,965.03
2022-08-27T08:32:26.836Z,965.04
2022-08-27T08:33:27.079Z,965.04
2022-08-27T08:34:27.362Z,965.05
2022-08-27T08:35:27.590Z,965.06
2022-08-27T08:36:28.927Z,965.08
2022-08-27T08:37:28.208Z,965.07
2022-08-27T08:38:28.426Z,965.08
2022-08-27T08:39:28.698Z,965.07
2022-08-27T08:40:29.068Z,965.06
2022-08-27T08:41:31.168Z,965.06
2022-08-27T08:42:29.387Z,965.07
2022-08-27T08:43:29.702Z,965.07
2022-08-27T08:44:30.055Z,965.10
2022-08-27T08:45:30.259Z,965.08
2022-08-27T08:46:30.643Z,965.08
2022-08-27T08:47:30.916Z,965.11
2022-08-27T08:48:31.179Z,965.09
2022-08-27T08:49:31.398Z,965.12
2022-08-27T08:50:31.645Z,965.10
2022-08-27T08:51:31.885Z,965.11
2022-08-27T08:52:32.248Z,965.12
2022-08-27T08:53:32.349Z,965.12
2022-08-27T08:54:32.664Z,965.13
2022-08-27T08:55:32.972Z,965.15
2022-08-27T08:56:33.320Z,965.16
2022-08-27T08:57:33.680Z,965.15
2022-08-27T08:58:33.898Z,965.13
2022-08-27T08:59:34.211Z,965.16
2022-08-27T09:00:34.581Z,965.19
2022-08-27T09:01:34.905Z,965.20
2022-08-27T09:02:35.017Z,965.18
2022-08-27T09:03:35.358Z,965.22
2022-08-27T09:04:35.599Z,965.23
2022-08-27T09:05:35.936Z,965.23
2022-08-27T09:06:36.286Z,965.24
2022-08-27T09:07:36.836Z,965.26
2022-08-27T09:08:41.050Z,965.24
2022-08-27T09:09:38.079Z,965.25
2022-08-27T09:10:37.361Z,965.25
2022-08-27T09:11:37.723Z,965.24
2022-08-27T09:12:37.946Z,965.23
2022-08-27T09:13:38.285Z,965.23
2022-08-27T09:14:38.609Z,965.20
2022-08-27T09:15:38.947Z,965.24
2022-08-27T09:16:39.330Z,965.21
2022-08-27T09:17:39.600Z,965.21
2022-08-27T09:18:39.823Z,965.21
2022-08-27T09:19:40.061Z,965.20
2022-08-27T09:20:40.304Z,965.18
2022-08-27T09:21:40.603Z,965.19
2022-08-27T09:22:40.871Z,965.20
2022-08-27T09:23:41.104Z,965.16
2022-08-27T09:24:41.353Z,965.18
2022-08-27T09:25:41.551Z,965.16
2022-08-27T09:26:41.889Z,965.13
2022-08-27T09:27:42.208Z,965.14
2022-08-27T09:28:42.562Z,965.13
2022-08-27T09:29:42.774Z,965.13
2022-08-27T09:30:43.210Z,965.17
2022-08-27T09:31:43.442Z,965.12
2022-08-27T09:32:43.811Z,965.11
2022-08-27T09:33:55.101Z,965.11
2022-08-27T09:34:45.362Z,965.13
2022-08-27T09:35:44.623Z,965.17
2022-08-27T09:36:44.950Z,965.13
2022-08-27T09:37:45.268Z,965.13
2022-08-27T09:38:45.629Z,965.11
2022-08-27T09:39:46.814Z,965.11
2022-08-27T09:40:46.119Z,965.09
2022-08-27T09:41:46.368Z,965.08
2022-08-27T09:42:49.597Z,965.07
2022-08-27T09:43:47.030Z,965.10
2022-08-27T09:44:51.536Z,965.10
2022-08-27T09:45:48.740Z,965.10
2022-08-27T09:46:47.891Z,965.06
2022-08-27T09:47:48.259Z,965.06
2022-08-27T09:48:48.462Z,965.10
2022-08-27T09:49:48.785Z,965.06
2022-08-27T09:50:49.125Z,965.03
2022-08-27T09:51:49.451Z,965.00
2022-08-27T09:52:49.792Z,965.02
2022-08-27T09:53:49.991Z,965.03
2022-08-27T09:54:50.318Z,965.01
2022-08-27T09:55:50.648Z,965.03
2022-08-27T09:56:51.012Z,965.00
2022-08-27T09:57:51.221Z,964.97
2022-08-27T09:58:51.538Z,964.97
2022-08-27T09:59:51.846Z,964.96
2022-08-27T10:00:52.178Z,964.98
2022-08-27T10:01:52.434Z,964.96
2022-08-27T10:02:52.635Z,964.96
2022-08-27T10:03:53.001Z,964.98
2022-08-27T10:04:53.234Z,964.95
2022-08-27T10:05:53.552Z,964.93
2022-08-27T10:06:53.892Z,964.92
2022-08-27T10:07:54.228Z,964.95
2022-08-27T10:08:54.454Z,964.91
2022-08-27T10:09:54.774Z,964.90
2022-08-27T10:10:55.097Z,964.94
2022-08-27T10:11:55.454Z,964.89
2022-08-27T10:12:55.673Z,964.88
2022-08-27T10:13:55.985Z,964.91
2022-08-27T10:14:56.302Z,964.91
2022-08-27T10:15:56.614Z,964.86
2022-08-27T10:16:56.976Z,964.85
2022-08-27T10:17:57.216Z,964.95
2022-08-27T10:18:57.547Z,964.89
2022-08-27T10:19:57.866Z,964.94
2022-08-27T10:21:01.111Z,964.87
2022-08-27T10:21:59.479Z,964.87
2022-08-27T10:22:58.704Z,964.80
2022-08-27T10:23:59.053Z,964.81
2022-08-27T10:24:59.235Z,964.85
2022-08-27T10:25:59.551Z,964.82
2022-08-27T10:26:59.853Z,964.82
2022-08-27T10:28:00.157Z,964.85
2022-08-27T10:29:00.467Z,964.84
2022-08-27T10:30:00.798Z,964.88
2022-08-27T10:31:00.972Z,964.84
2022-08-27T10:32:01.307Z,964.88
2022-08-27T10:33:03.755Z,964.87
2022-08-27T10:34:01.812Z,964.90
2022-08-27T10:35:02.125Z,964.91
2022-08-27T10:36:02.448Z,964.92
2022-08-27T10:37:04.304Z,964.93
2022-08-27T10:38:03.996Z,964.91
2022-08-27T10:39:03.278Z,964.97
2022-08-27T10:40:03.538Z,964.95
2022-08-27T10:41:03.745Z,964.92
2022-08-27T10:42:04.049Z,964.92
2022-08-27T10:43:04.357Z,964.95
2022-08-27T10:44:04.692Z,964.91
2022-08-27T10:45:04.990Z,964.89
2022-08-27T10:46:05.353Z,964.84
2022-08-27T10:47:05.596Z,964.89
2022-08-27T10:48:05.885Z,964.83
2022-08-27T10:49:06.226Z,964.81
2022-08-27T10:50:06.568Z,964.80
2022-08-27T10:51:06.740Z,964.86
2022-08-27T10:52:08.522Z,964.82
2022-08-27T10:53:07.277Z,964.83
2022-08-27T10:54:07.575Z,964.83
2022-08-27T10:55:07.915Z,964.85
2022-08-27T10:56:08.203Z,964.87
2022-08-27T10:57:26.532Z,964.81
2022-08-27T10:58:09.807Z,964.87
2022-08-27T10:59:09.046Z,964.85
2022-08-27T11:00:09.363Z,964.86
2022-08-27T11:01:09.755Z,964.83
2022-08-27T11:02:09.992Z,964.83
2022-08-27T11:03:10.796Z,964.84
2022-08-27T11:04:10.518Z,964.83
2022-08-27T11:05:10.860Z,964.82
2022-08-27T11:06:11.175Z,964.80
2022-08-27T11:07:11.477Z,964.76
2022-08-27T11:08:11.959Z,964.78
2022-08-27T11:09:12.051Z,964.79
2022-08-27T11:10:12.384Z,964.79
2022-08-27T11:11:56.936Z,964.72
2022-08-27T11:12:15.087Z,964.72
2022-08-27T11:13:13.117Z,964.78
2022-08-27T11:14:13.441Z,964.71
2022-08-27T11:15:13.740Z,964.70
2022-08-27T11:16:14.136Z,964.71
2022-08-27T11:17:14.353Z,964.67
2022-08-27T11:18:14.638Z,964.68
2022-08-27T11:19:14.979Z,964.72
2022-08-27T11:20:15.277Z,964.72
2022-08-27T11:21:15.596Z,964.66
2022-08-27T11:22:25.937Z,964.66
2022-08-27T11:23:17.226Z,964.59
2022-08-27T11:24:16.463Z,964.66
2022-08-27T11:25:16.760Z,964.61
2022-08-27T11:26:17.073Z,964.60
2022-08-27T11:27:17.378Z,964.60
2022-08-27T11:28:17.681Z,964.60
2022-08-27T11:29:18.002Z,964.66
2022-08-27T11:30:18.242Z,964.61
2022-08-27T11:31:18.585Z,964.61
2022-08-27T11:32:18.819Z,964.57
2022-08-27T11:33:19.113Z,964.59
2022-08-27T11:34:19.422Z,964.60
2022-08-27T11:35:19.726Z,964.60
2022-08-27T11:36:20.049Z,964.56
2022-08-27T11:37:20.352Z,964.53
2022-08-27T11:38:20.662Z,964.53
2022-08-27T11:39:20.970Z,964.52
2022-08-27T11:40:21.309Z,964.49
2022-08-27T11:41:21.547Z,964.57
2022-08-27T11:42:21.846Z,964.55
2022-08-27T11:43:22.130Z,964.57
2022-08-27T11:44:22.427Z,964.53
2022-08-27T11:45:22.741Z,964.50
2022-08-27T11:46:25.009Z,964.49
2022-08-27T11:47:23.398Z,964.48
2022-08-27T11:48:23.703Z,964.43
2022-08-27T11:49:24.001Z,964.43
2022-08-27T11:50:24.279Z,964.41
2022-08-27T11:51:24.593Z,964.46
2022-08-27T11:52:24.929Z,964.48
2022-08-27T11:53:28.351Z,964.47
2022-08-27T11:54:25.519Z,964.46
2022-08-27T11:55:25.823Z,964.41
2022-08-27T11:56:26.136Z,964.40
2022-08-27T11:57:26.470Z,964.43
2022-08-27T11:58:26.783Z,964.40
2022-08-27T11:59:27.123Z,964.42
2022-08-27T12:00:27.320Z,964.41
2022-08-27T12:01:27.654Z,964.38
2022-08-27T12:02:27.978Z,964.39
2022-08-27T12:03:28.398Z,964.39
2022-08-27T12:04:28.655Z,964.39
2022-08-27T12:05:28.883Z,964.39
2022-08-27T12:06:29.223Z,964.33
2022-08-27T12:07:29.521Z,964.33
2022-08-27T12:08:29.850Z,964.30
2022-08-27T12:09:30.189Z,964.35
2022-08-27T12:10:30.516Z,964.29
2022-08-27T12:11:30.817Z,964.31
2022-08-27T12:12:31.134Z,964.25
2022-08-27T12:13:31.456Z,964.25
2022-08-27T12:14:31.783Z,964.26
2022-08-27T12:15:33.126Z,964.29
2022-08-27T12:16:32.469Z,964.22
2022-08-27T12:17:32.734Z,964.26
2022-08-27T12:18:33.053Z,964.24
2022-08-27T12:19:33.345Z,964.24
2022-08-27T12:20:33.660Z,964.21
2022-08-27T12:21:33.963Z,964.23
2022-08-27T12:22:37.808Z,964.16
2022-08-27T12:23:35.603Z,964.21
2022-08-27T12:24:34.838Z,964.18
2022-08-27T12:25:35.157Z,964.16
2022-08-27T12:26:35.464Z,964.17
2022-08-27T12:27:35.780Z,964.18
2022-08-27T12:28:36.128Z,964.16
2022-08-27T12:29:36.414Z,964.16
2022-08-27T12:30:36.751Z,964.14
2022-08-27T12:31:37.197Z,964.14
2022-08-27T12:32:37.315Z,964.14
2022-08-27T12:33:37.646Z,964.17
2022-08-27T12:34:37.960Z,964.13
2022-08-27T12:35:38.194Z,964.13
2022-08-27T12:36:38.496Z,964.13
2022-08-27T12:37:38.725Z,964.16
2022-08-27T12:38:39.068Z,964.13
2022-08-27T12:39:39.257Z,964.13
2022-08-27T12:40:39.593Z,964.12
2022-08-27T12:41:43.668Z,964.08
2022-08-27T12:42:41.149Z,964.10
2022-08-27T12:43:40.396Z,964.10
2022-08-27T12:44:40.726Z,964.09
2022-08-27T12:45:41.018Z,964.10
2022-08-27T12:46:41.393Z,964.08
2022-08-27T12:47:42.654Z,964.11
2022-08-27T12:48:42.897Z,964.06
2022-08-27T12:49:42.147Z,964.04
2022-08-27T12:50:42.475Z,964.12
2022-08-27T12:51:42.794Z,964.13
2022-08-27T12:52:43.092Z,964.12
2022-08-27T12:53:43.410Z,964.12
2022-08-27T12:54:43.715Z,964.12
2022-08-27T12:55:44.008Z,964.09
2022-08-27T12:56:44.341Z,964.14
2022-08-27T12:57:44.635Z,964.06
2022-08-27T12:58:44.943Z,964.09
2022-08-27T12:59:45.308Z,964.10
2022-08-27T13:00:45.701Z,964.07
2022-08-27T13:01:45.986Z,964.09
2022-08-27T13:02:46.233Z,964.07
2022-08-27T13:03:46.455Z,964.09
2022-08-27T13:04:46.725Z,964.11
2022-08-27T13:05:47.060Z,964.04
2022-08-27T13:06:47.388Z,964.05
2022-08-27T13:07:47.697Z,964.05
2022-08-27T13:08:48.499Z,964.04
2022-08-27T13:09:48.222Z,964.05
2022-08-27T13:10:48.541Z,964.04
2022-08-27T13:11:48.834Z,964.03
2022-08-27T13:12:49.137Z,964.00
2022-08-27T13:13:49.437Z,964.02
2022-08-27T13:14:57.100Z,963.98
2022-08-27T13:15:51.104Z,964.02
2022-08-27T13:16:50.335Z,964.01
2022-08-27T13:17:50.617Z,964.03
2022-08-27T13:18:50.839Z,964.03
2022-08-27T13:19:51.168Z,964.03
2022-08-27T13:20:53.493Z,964.00
2022-08-27T13:21:51.765Z,964.01
2022-08-27T13:22:52.069Z,963.99
2022-08-27T13:23:52.378Z,964.02
2022-08-27T13:24:52.711Z,964.03
2022-08-27T13:25:53.000Z,964.00
2022-08-27T13:26:53.299Z,963.98
2022-08-27T13:27:53.642Z,963.98
2022-08-27T13:28:53.946Z,963.96
2022-08-27T13:29:54.301Z,963.98
2022-08-27T13:30:54.468Z,963.93
2022-08-27T13:31:54.746Z,963.95
2022-08-27T13:32:55.034Z,963.90
2022-08-27T13:33:55.334Z,963.97
2022-08-27T13:34:55.669Z,963.94
2022-08-27T13:35:55.970Z,963.93
2022-08-27T13:36:56.279Z,963.96
2022-08-27T13:37:56.566Z,963.91
2022-08-27T13:38:56.877Z,963.92
2022-08-27T13:39:57.092Z,963.92
2022-08-27T13:40:57.333Z,963.93
2022-08-27T13:41:57.671Z,963.90
2022-08-27T13:42:57.979Z,963.90
2022-08-27T13:43:59.496Z,963.94
2022-08-27T13:44:58.607Z,963.96
2022-08-27T13:45:58.906Z,963.89
2022-08-27T13:46:59.276Z,963.94
2022-08-27T13:47:59.518Z,963.89
2022-08-27T13:48:59.847Z,963.91
2022-08-27T13:50:00.168Z,963.88
2022-08-27T13:51:00.489Z,963.85
2022-08-27T13:52:00.798Z,963.83
2022-08-27T13:53:01.106Z,963.83
2022-08-27T13:54:01.450Z,963.83
2022-08-27T13:55:01.643Z,963.85
2022-08-27T13:56:01.937Z,963.88
2022-08-27T13:57:02.231Z,963.86
2022-08-27T13:58:02.559Z,963.88
2022-08-27T13:59:02.868Z,963.90
2022-08-27T14:00:04.646Z,963.89
2022-08-27T14:01:03.440Z,963.89
2022-08-27T14:02:03.913Z,963.87
2022-08-27T14:03:04.144Z,963.86
2022-08-27T14:04:04.351Z,963.89
2022-08-27T14:05:04.649Z,963.79
2022-08-27T14:06:04.843Z,963.79
2022-08-27T14:07:05.135Z,963.79
2022-08-27T14:08:05.438Z,963.76
2022-08-27T14:09:05.747Z,963.73
2022-08-27T14:10:06.040Z,963.80
2022-08-27T14:11:06.314Z,963.84
2022-08-27T14:12:06.633Z,963.84
2022-08-27T14:13:06.962Z,963.91
2022-08-27T14:14:07.260Z,963.88
2022-08-27T14:15:07.558Z,963.93
2022-08-27T14:16:07.930Z,963.94
2022-08-27T14:17:08.156Z,963.92
2022-08-27T14:18:08.515Z,963.94
2022-08-27T14:19:08.689Z,963.93
2022-08-27T14:20:14.680Z,963.96
2022-08-27T14:21:10.262Z,963.97
2022-08-27T14:22:09.482Z,963.96
2022-08-27T14:23:09.796Z,964.00
2022-08-27T14:24:10.086Z,964.02
2022-08-27T14:25:10.398Z,964.03
2022-08-27T14:26:10.676Z,964.01
2022-08-27T14:27:10.979Z,964.02
2022-08-27T14:28:11.495Z,964.00
2022-08-27T14:29:12.130Z,963.99
2022-08-27T14:30:11.800Z,964.01
2022-08-27T14:31:12.116Z,963.99
2022-08-27T14:32:12.314Z,963.96
2022-08-27T14:33:12.616Z,963.98
2022-08-27T14:34:12.949Z,963.96
2022-08-27T14:35:13.243Z,964.02